createdAt,value
2023-08-12T00:03:14.189Z,17.38
2023-08-12T00:06:38.234Z,17.27
2023-08-12T00:10:00.913Z,17.48
2023-08-12T00:13:22.600Z,17.55
2023-08-12T00:16:44.295Z,17.48
2023-08-12T00:20:11.831Z,17.19
2023-08-12T00:23:33.539Z,17.14
2023-08-12T00:26:57.685Z,17.18
2023-08-12T00:30:21.897Z,17.36
2023-08-12T00:33:46.389Z,17.27
2023-08-12T00:37:08.033Z,17.01
2023-08-12T00:40:29.651Z,16.98
2023-08-12T00:43:51.245Z,16.95
2023-08-12T00:47:13.371Z,17.00
2023-08-12T00:50:38.702Z,16.94
2023-08-12T00:54:05.302Z,17.04
2023-08-12T00:57:27.006Z,16.92
2023-08-12T01:00:48.723Z,17.07
2023-08-12T01:04:12.892Z,17.07
2023-08-12T01:07:36.934Z,17.08
2023-08-12T01:11:16.787Z,16.94
2023-08-12T01:14:55.452Z,16.60
2023-08-12T01:18:17.403Z,16.57
2023-08-12T01:21:44.832Z,16.59
2023-08-12T01:25:10.360Z,16.57
2023-08-12T01:28:32.019Z,16.66
2023-08-12T01:31:59.447Z,16.09
2023-08-12T01:35:24.957Z,16.29
2023-08-12T01:38:52.569Z,16.40
2023-08-12T01:42:21.602Z,16.36
2023-08-12T01:45:45.516Z,16.46
2023-08-12T01:49:07.169Z,16.42
2023-08-12T01:52:28.954Z,16.23
2023-08-12T01:55:56.822Z,16.29
2023-08-12T01:59:18.542Z,16.26
2023-08-12T02:02:40.280Z,16.39
2023-08-12T02:06:04.551Z,16.45
2023-08-12T02:09:26.312Z,16.49
2023-08-12T02:12:47.965Z,16.49
2023-08-12T02:16:14.382Z,16.48
2023-08-12T02:19:36.102Z,16.28
2023-08-12T02:23:00.981Z,16.29
2023-08-12T02:26:22.631Z,16.30
2023-08-12T02:29:46.720Z,16.34
2023-08-12T02:33:08.373Z,16.30
2023-08-12T02:36:30.109Z,16.30
2023-08-12T02:39:54.241Z,16.25
2023-08-12T02:43:15.951Z,16.23
2023-08-12T02:46:40.030Z,16.22
2023-08-12T02:50:01.723Z,16.13
2023-08-12T02:53:26.067Z,16.26
2023-08-12T02:56:53.573Z,16.34
2023-08-12T03:00:18.209Z,16.25
2023-08-12T03:03:42.384Z,16.19
2023-08-12T03:07:04.149Z,16.26
2023-08-12T03:10:25.840Z,16.26
2023-08-12T03:13:47.435Z,16.29
2023-08-12T03:17:13.793Z,16.34
2023-08-12T03:20:35.675Z,16.34
2023-08-12T03:24:00.082Z,16.43
2023-08-12T03:27:21.726Z,16.40
2023-08-12T03:30:51.732Z,16.39
2023-08-12T03:34:13.700Z,16.34
2023-08-12T03:37:35.434Z,16.32
2023-08-12T03:40:59.557Z,16.40
2023-08-12T03:44:21.194Z,16.36
2023-08-12T03:47:45.300Z,16.33
2023-08-12T03:51:06.915Z,16.36
2023-08-12T03:54:28.540Z,16.26
2023-08-12T03:57:50.212Z,16.28
2023-08-12T04:01:14.192Z,16.22
2023-08-12T04:04:35.894Z,16.19
2023-08-12T04:07:57.470Z,16.23
2023-08-12T04:11:19.079Z,16.26
2023-08-12T04:14:42.117Z,16.32
2023-08-12T04:18:04.175Z,16.38
2023-08-12T04:21:28.100Z,16.57
2023-08-12T04:24:50.155Z,16.55
2023-08-12T04:28:14.830Z,16.52
2023-08-12T04:31:36.603Z,16.52
2023-08-12T04:35:00.523Z,16.59
2023-08-12T04:38:22.207Z,16.70
2023-08-12T04:41:46.145Z,16.77
2023-08-12T04:45:08.146Z,16.79
2023-08-12T04:48:29.827Z,16.85
2023-08-12T04:51:55.143Z,16.95
2023-08-12T04:55:17.069Z,16.97
2023-08-12T04:58:41.147Z,17.15
2023-08-12T05:02:17.161Z,17.17
2023-08-12T05:05:43.660Z,17.34
2023-08-12T05:09:05.478Z,17.48
2023-08-12T05:12:27.162Z,17.65
2023-08-12T05:15:51.396Z,17.86
2023-08-12T05:19:13.046Z,18.04
2023-08-12T05:22:36.732Z,18.31
2023-08-12T05:26:01.120Z,18.49
2023-08-12T05:29:25.244Z,18.70
2023-08-12T05:32:49.416Z,18.92
2023-08-12T05:36:11.167Z,19.17
2023-08-12T05:39:35.020Z,19.26
2023-08-12T05:42:56.646Z,19.34
2023-08-12T05:46:20.644Z,19.35
2023-08-12T05:49:43.475Z,19.55
2023-08-12T05:53:05.170Z,19.61
2023-08-12T05:56:26.857Z,19.81
2023-08-12T05:59:48.516Z,19.96
2023-08-12T06:03:13.235Z,20.43
2023-08-12T06:06:37.634Z,20.47
2023-08-12T06:10:01.500Z,20.70
2023-08-12T06:13:25.482Z,21.09
2023-08-12T06:16:49.834Z,21.13
2023-08-12T06:20:14.896Z,21.05
2023-08-12T06:23:36.538Z,20.95
2023-08-12T06:27:00.634Z,21.13
2023-08-12T06:30:22.315Z,21.45
2023-08-12T06:33:43.972Z,21.70
2023-08-12T06:37:05.555Z,21.80
2023-08-12T06:40:27.990Z,21.80
2023-08-12T06:43:52.085Z,21.37
2023-08-12T06:47:16.220Z,21.23
2023-08-12T06:50:40.171Z,21.15
2023-08-12T06:54:02.503Z,21.27
2023-08-12T06:57:24.193Z,21.29
2023-08-12T07:00:48.060Z,21.56
2023-08-12T07:04:09.723Z,21.56
2023-08-12T07:07:33.789Z,21.94
2023-08-12T07:10:55.488Z,22.21
2023-08-12T07:14:21.909Z,22.83
2023-08-12T07:17:43.529Z,22.97
2023-08-12T07:21:05.271Z,23.27
2023-08-12T07:24:29.356Z,23.25
2023-08-12T07:27:56.063Z,23.22
2023-08-12T07:31:18.869Z,23.76
2023-08-12T07:34:42.904Z,24.14
2023-08-12T07:38:04.852Z,24.55
2023-08-12T07:41:28.682Z,24.78
2023-08-12T07:44:50.309Z,24.58
2023-08-12T07:48:12.132Z,24.30
2023-08-12T07:51:36.120Z,24.40
2023-08-12T07:54:57.769Z,24.76
2023-08-12T07:58:21.742Z,25.10
2023-08-12T08:01:45.637Z,25.37
2023-08-12T08:05:10.096Z,25.30
2023-08-12T08:08:31.821Z,25.19
2023-08-12T08:11:57.305Z,24.86
2023-08-12T08:15:19.356Z,24.64
2023-08-12T08:18:40.948Z,24.76
2023-08-12T08:22:02.658Z,24.55
2023-08-12T08:25:28.729Z,24.89
2023-08-12T08:28:52.895Z,25.06
2023-08-12T08:32:17.817Z,24.68
2023-08-12T08:35:39.562Z,24.97
2023-08-12T08:39:01.203Z,25.33
2023-08-12T08:42:25.915Z,26.01
2023-08-12T08:45:53.291Z,25.96
2023-08-12T08:49:18.605Z,25.74
2023-08-12T08:52:44.448Z,25.89
2023-08-12T08:56:15.631Z,25.86
2023-08-12T08:59:37.814Z,26.02
2023-08-12T09:03:04.479Z,26.08
2023-08-12T09:06:29.592Z,26.36
2023-08-12T09:09:53.783Z,27.16
2023-08-12T09:13:19.488Z,27.74
2023-08-12T09:16:41.229Z,27.16
2023-08-12T09:20:02.972Z,26.94
2023-08-12T09:23:27.076Z,27.32
2023-08-12T09:26:56.546Z,27.12
2023-08-12T09:30:19.269Z,26.71
2023-08-12T09:33:41.416Z,27.04
2023-08-12T09:37:05.479Z,27.79
2023-08-12T09:40:27.584Z,27.97
2023-08-12T09:43:54.248Z,27.52
2023-08-12T09:47:15.864Z,27.70
2023-08-12T09:50:39.833Z,28.02
2023-08-12T09:54:01.808Z,27.77
2023-08-12T09:57:26.928Z,27.26
2023-08-12T10:00:51.553Z,27.50
2023-08-12T10:04:18.043Z,28.21
2023-08-12T10:07:41.329Z,29.08
2023-08-12T10:11:13.141Z,29.41
2023-08-12T10:14:37.760Z,29.89
2023-08-12T10:18:01.770Z,29.52
2023-08-12T10:21:24.570Z,28.92
2023-08-12T10:24:47.437Z,28.07
2023-08-12T10:28:11.824Z,28.10
2023-08-12T10:31:36.455Z,27.96
2023-08-12T10:34:58.801Z,27.50
2023-08-12T10:38:21.716Z,28.01
2023-08-12T10:41:52.312Z,28.38
2023-08-12T10:45:16.098Z,28.72
2023-08-12T10:48:56.936Z,28.70
2023-08-12T10:52:34.955Z,28.86
2023-08-12T10:56:01.004Z,28.69
2023-08-12T10:59:55.110Z,28.84
2023-08-12T11:03:16.981Z,29.28
2023-08-12T11:06:46.825Z,28.58
2023-08-12T11:10:15.273Z,28.65
2023-08-12T11:14:02.972Z,28.80
2023-08-12T11:17:34.095Z,29.03
2023-08-12T11:20:58.821Z,29.31
2023-08-12T11:24:25.468Z,29.89
2023-08-12T11:27:49.005Z,30.17
2023-08-12T11:31:11.350Z,29.59
2023-08-12T11:34:34.166Z,30.03
2023-08-12T11:37:58.687Z,30.48
2023-08-12T11:41:25.706Z,30.94
2023-08-12T11:44:49.664Z,30.75
2023-08-12T11:48:14.606Z,29.63
2023-08-12T11:51:40.955Z,29.61
2023-08-12T11:55:03.060Z,29.65
2023-08-12T11:58:24.773Z,29.90
2023-08-12T12:01:55.347Z,30.13
2023-08-12T12:05:24.770Z,29.92
2023-08-12T12:08:48.209Z,29.96
2023-08-12T12:12:11.580Z,30.21
2023-08-12T12:15:42.753Z,30.31
2023-08-12T12:19:06.602Z,30.53
2023-08-12T12:22:30.512Z,29.98
2023-08-12T12:26:01.712Z,28.96
2023-08-12T12:29:28.293Z,29.03
2023-08-12T12:32:50.028Z,28.79
2023-08-12T12:36:11.748Z,29.00
2023-08-12T12:39:33.377Z,29.15
2023-08-12T12:42:54.984Z,29.30
2023-08-12T12:46:19.328Z,29.02
2023-08-12T12:49:43.232Z,28.76
2023-08-12T12:53:04.986Z,28.79
2023-08-12T12:56:29.179Z,28.92
2023-08-12T12:59:53.035Z,29.03
2023-08-12T13:03:17.029Z,29.07
2023-08-12T13:06:41.785Z,29.13
2023-08-12T13:10:06.133Z,29.24
2023-08-12T13:13:27.905Z,29.13
2023-08-12T13:16:52.071Z,28.65
2023-08-12T13:20:16.419Z,28.69
2023-08-12T13:23:38.079Z,28.67
2023-08-12T13:27:01.902Z,28.72
2023-08-12T13:30:23.627Z,28.94
2023-08-12T13:33:45.272Z,29.03
2023-08-12T13:37:07.059Z,29.06
2023-08-12T13:40:28.758Z,29.17
2023-08-12T13:43:50.547Z,29.06
2023-08-12T13:47:15.084Z,29.24
2023-08-12T13:50:38.777Z,29.35
2023-08-12T13:54:00.374Z,29.34
2023-08-12T13:57:22.094Z,29.41
2023-08-12T14:00:46.018Z,29.39
2023-08-12T14:04:07.645Z,29.38
2023-08-12T14:07:31.917Z,29.54
2023-08-12T14:10:56.376Z,29.57
2023-08-12T14:14:18.030Z,29.54
2023-08-12T14:17:39.726Z,29.35
2023-08-12T14:21:01.466Z,28.82
2023-08-12T14:24:25.586Z,28.73
2023-08-12T14:27:47.176Z,28.56
2023-08-12T14:31:08.916Z,28.62
2023-08-12T14:34:30.610Z,28.59
2023-08-12T14:37:54.901Z,28.75
2023-08-12T14:41:16.537Z,28.80
2023-08-12T14:44:42.970Z,28.48
2023-08-12T14:48:04.886Z,28.51
2023-08-12T14:51:27.018Z,28.67
2023-08-12T14:54:53.366Z,28.70
2023-08-12T14:58:17.466Z,28.52
2023-08-12T15:01:41.201Z,28.44
2023-08-12T15:05:02.828Z,28.35
2023-08-12T15:08:27.179Z,28.48
2023-08-12T15:11:48.821Z,28.59
2023-08-12T15:15:10.679Z,28.65
2023-08-12T15:18:32.473Z,28.60
2023-08-12T15:21:56.444Z,28.60
2023-08-12T15:25:20.786Z,28.49
2023-08-12T15:28:45.027Z,28.21
2023-08-12T15:32:09.250Z,28.08
2023-08-12T15:35:33.289Z,28.10
2023-08-12T15:38:57.667Z,28.14
2023-08-12T15:42:19.343Z,28.15
2023-08-12T15:45:43.174Z,28.14
2023-08-12T15:49:11.755Z,28.17
2023-08-12T15:52:35.836Z,28.12
2023-08-12T15:55:57.596Z,28.02
2023-08-12T15:59:20.777Z,28.01
2023-08-12T16:02:43.536Z,27.89
2023-08-12T16:06:05.230Z,27.83
2023-08-12T16:09:26.909Z,27.70
2023-08-12T16:12:48.556Z,27.70
2023-08-12T16:16:12.667Z,27.66
2023-08-12T16:19:34.328Z,27.62
2023-08-12T16:22:55.945Z,27.60
2023-08-12T16:26:18.757Z,27.52
2023-08-12T16:29:41.849Z,27.43
2023-08-12T16:33:05.314Z,27.41
2023-08-12T16:36:27.057Z,27.32
2023-08-12T16:39:49.274Z,27.28
2023-08-12T16:43:12.915Z,27.21
2023-08-12T16:46:34.583Z,27.14
2023-08-12T16:49:56.170Z,27.09
2023-08-12T16:53:17.856Z,27.01
2023-08-12T16:56:44.203Z,26.95
2023-08-12T17:00:07.101Z,26.90
2023-08-12T17:03:28.784Z,26.85
2023-08-12T17:06:53.932Z,26.84
2023-08-12T17:10:20.637Z,26.71
2023-08-12T17:13:42.487Z,26.67
2023-08-12T17:17:04.352Z,26.63
2023-08-12T17:20:28.628Z,26.56
2023-08-12T17:23:55.240Z,26.50
2023-08-12T17:27:16.993Z,26.43
2023-08-12T17:30:38.685Z,26.39
2023-08-12T17:34:03.825Z,26.32
2023-08-12T17:37:25.607Z,26.23
2023-08-12T17:40:50.270Z,26.10
2023-08-12T17:44:11.902Z,25.98
2023-08-12T17:47:38.400Z,25.84
2023-08-12T17:51:02.325Z,25.60
2023-08-12T17:54:29.474Z,25.53
2023-08-12T17:57:53.632Z,25.28
2023-08-12T18:01:18.203Z,25.19
2023-08-12T18:04:42.181Z,25.19
2023-08-12T18:08:06.828Z,25.10
2023-08-12T18:11:28.671Z,25.02
2023-08-12T18:14:50.340Z,24.92
2023-08-12T18:18:11.960Z,24.85
2023-08-12T18:21:36.611Z,24.69
2023-08-12T18:24:58.199Z,24.64
2023-08-12T18:28:19.854Z,24.42
2023-08-12T18:31:41.449Z,24.35
2023-08-12T18:35:03.387Z,24.17
2023-08-12T18:38:25.097Z,23.97
2023-08-12T18:41:47.056Z,23.83
2023-08-12T18:45:11.908Z,23.80
2023-08-12T18:48:33.580Z,23.72
2023-08-12T18:51:55.437Z,23.63
2023-08-12T18:55:22.481Z,23.61
2023-08-12T18:58:46.509Z,23.52
2023-08-12T19:02:11.070Z,23.21
2023-08-12T19:05:32.729Z,22.94
2023-08-12T19:08:54.486Z,22.71
2023-08-12T19:12:16.286Z,22.83
2023-08-12T19:15:38.261Z,22.79
2023-08-12T19:19:02.163Z,22.81
2023-08-12T19:22:23.815Z,22.66
2023-08-12T19:25:45.548Z,22.69
2023-08-12T19:29:07.223Z,22.43
2023-08-12T19:32:28.904Z,22.36
2023-08-12T19:35:50.762Z,22.23
2023-08-12T19:39:12.408Z,22.08
2023-08-12T19:42:34.278Z,21.94
2023-08-12T19:46:00.816Z,21.83
2023-08-12T19:49:22.544Z,21.81
2023-08-12T19:52:48.956Z,21.70
2023-08-12T19:56:10.644Z,21.74
2023-08-12T19:59:32.276Z,21.68
2023-08-12T20:02:56.773Z,21.56
2023-08-12T20:06:18.531Z,21.43
2023-08-12T20:09:42.654Z,21.36
2023-08-12T20:13:04.568Z,21.51
2023-08-12T20:16:26.225Z,21.54
2023-08-12T20:19:50.083Z,21.50
2023-08-12T20:23:11.865Z,21.33
2023-08-12T20:26:33.530Z,21.33
2023-08-12T20:29:55.156Z,21.29
2023-08-12T20:33:17.101Z,21.33
2023-08-12T20:36:38.804Z,21.30
2023-08-12T20:40:00.451Z,21.20
2023-08-12T20:43:22.138Z,21.32
2023-08-12T20:46:46.065Z,21.05
2023-08-12T20:50:10.550Z,21.15
2023-08-12T20:53:34.660Z,20.91
2023-08-12T20:56:56.355Z,21.05
2023-08-12T21:00:20.331Z,20.96
2023-08-12T21:03:44.331Z,20.92
2023-08-12T21:07:06.716Z,20.91
2023-08-12T21:10:28.401Z,20.85
2023-08-12T21:13:50.045Z,20.89
2023-08-12T21:17:12.003Z,20.88
2023-08-12T21:20:33.736Z,20.87
2023-08-12T21:23:55.339Z,20.94
2023-08-12T21:27:19.390Z,20.84
2023-08-12T21:30:43.556Z,20.72
2023-08-12T21:34:08.968Z,20.68
2023-08-12T21:37:33.355Z,20.81
2023-08-12T21:40:57.492Z,20.91
2023-08-12T21:44:21.530Z,20.85
2023-08-12T21:47:43.300Z,20.88
2023-08-12T21:51:05.701Z,20.85
2023-08-12T21:54:28.514Z,20.84
2023-08-12T21:57:52.522Z,20.87
2023-08-12T22:01:14.668Z,20.82
2023-08-12T22:04:38.639Z,20.65
2023-08-12T22:08:02.695Z,20.61
2023-08-12T22:11:29.121Z,20.63
2023-08-12T22:14:50.816Z,20.60
2023-08-12T22:18:12.708Z,20.58
2023-08-12T22:21:37.062Z,20.47
2023-08-12T22:24:58.691Z,20.26
2023-08-12T22:28:22.582Z,20.17
2023-08-12T22:31:44.246Z,20.16
2023-08-12T22:35:08.702Z,20.22
2023-08-12T22:38:33.079Z,20.14
2023-08-12T22:41:54.686Z,20.08
2023-08-12T22:45:16.861Z,20.03
2023-08-12T22:48:38.517Z,20.02
2023-08-12T22:52:02.674Z,19.93
2023-08-12T22:55:24.388Z,19.89
2023-08-12T22:58:46.131Z,19.90
2023-08-12T23:02:10.168Z,19.95
2023-08-12T23:05:31.882Z,19.92
2023-08-12T23:08:53.732Z,19.90
2023-08-12T23:12:20.715Z,19.83
2023-08-12T23:15:43.674Z,19.74
2023-08-12T23:19:05.783Z,19.64
2023-08-12T23:22:27.414Z,19.44
2023-08-12T23:25:49.042Z,19.48
2023-08-12T23:29:13.179Z,19.43
2023-08-12T23:32:38.540Z,19.50
2023-08-12T23:36:05.231Z,19.51
2023-08-12T23:39:27.602Z,19.35
2023-08-12T23:42:51.560Z,19.34
2023-08-12T23:46:13.873Z,19.21
2023-08-12T23:49:35.570Z,19.26
2023-08-12T23:52:59.681Z,19.24
2023-08-12T23:56:23.508Z,19.28
2023-08-12T23:59:47.341Z,19.39
